Time;durP1;ratioP1;P1;durP2;ratioP2;P2;SDS_P1;SDS_P2;PMS_P1;PMS_P2;Temp;Humidity;BMP_temperature;BMP_pressure;BME280_temperature;BME280_humidity;BME280_pressure;Samples;Min_cycle;Max_cycle;Signal;HPM_P1;HPM_P2
2023/11/26 00:00:51;;;;;;;0.20;0.10;;;;;;;-2.74;70.94;100387.84;4997969;28;20054;-80
2023/11/26 00:03:18;;;;;;;0.30;0.10;;;;;;;-2.75;71.23;100370.78;4997911;28;20133;-80
2023/11/26 00:05:45;;;;;;;1.60;0.10;;;;;;;-2.72;70.87;100381.09;4997407;28;20125;-80
2023/11/26 00:08:12;;;;;;;0.90;0.05;;;;;;;-2.71;70.92;100377.69;4997638;28;20563;-80
2023/11/26 00:10:41;;;;;;;1.38;0.10;;;;;;;-2.69;70.64;100376.06;4998375;28;20085;-81
2023/11/26 00:13:08;;;;;;;0.45;0.13;;;;;;;-2.68;70.47;100382.03;4998238;28;20085;-80
2023/11/26 00:15:35;;;;;;;1.08;0.15;;;;;;;-2.68;70.65;100377.78;4998243;28;20452;-80
2023/11/26 00:18:02;;;;;;;0.98;0.10;;;;;;;-2.72;70.67;100370.84;4998389;28;20420;-80
2023/11/26 00:20:29;;;;;;;0.30;0.10;;;;;;;-2.65;71.31;100382.13;4997521;28;20105;-80
2023/11/26 00:22:56;;;;;;;0.60;0.10;;;;;;;-2.64;70.87;100383.88;4997706;28;20085;-81
2023/11/26 00:25:23;;;;;;;0.68;0.10;;;;;;;-2.63;71.02;100383.88;4996959;28;20050;-81
2023/11/26 00:27:51;;;;;;;0.45;0.10;;;;;;;-2.63;70.57;100391.56;4996733;28;20137;-77
2023/11/26 00:30:19;;;;;;;2.28;0.20;;;;;;;-2.59;70.91;100397.63;4996594;28;20085;-77
2023/11/26 00:32:46;;;;;;;0.00;0.00;;;;;;;-2.59;71.17;100395.06;4996367;28;20082;-78
2023/11/26 00:35:13;;;;;;;1.55;0.10;;;;;;;-2.58;70.84;100390.00;4997135;28;20344;-77
2023/11/26 00:37:40;;;;;;;0.45;0.10;;;;;;;-2.57;70.49;100393.44;4997540;28;20101;-80
2023/11/26 00:40:09;;;;;;;0.40;0.15;;;;;;;-2.57;71.00;100386.63;4996998;28;20088;-81
2023/11/26 00:42:35;;;;;;;1.55;0.00;;;;;;;-2.56;70.84;100380.69;4997488;28;20050;-80
2023/11/26 00:45:05;;;;;;;0.20;0.00;;;;;;;-2.54;70.83;100385.84;4997713;28;20077;-80
2023/11/26 00:47:32;;;;;;;0.50;0.00;;;;;;;-2.65;70.64;100367.63;4996945;28;20097;-80
2023/11/26 00:50:01;;;;;;;0.13;0.13;;;;;;;-2.54;70.54;100386.69;4997572;28;20457;-81
2023/11/26 00:52:28;;;;;;;0.57;0.00;;;;;;;-2.54;71.00;100389.25;4995483;28;20086;-81
2023/11/26 00:54:55;;;;;;;0.60;0.10;;;;;;;-2.52;70.96;100390.19;4997251;28;20471;-80
2023/11/26 00:57:22;;;;;;;0.43;0.05;;;;;;;-2.52;70.91;100390.19;4996448;28;20082;-81
2023/11/26 00:59:49;;;;;;;0.68;0.05;;;;;;;-2.56;70.60;100385.81;4996918;28;20089;-80
2023/11/26 01:02:19;;;;;;;0.95;0.17;;;;;;;-2.50;70.50;100393.66;4996580;28;20523;-80
2023/11/26 01:04:46;;;;;;;0.10;0.05;;;;;;;-2.50;71.01;100390.25;4997149;28;20043;-80
2023/11/26 01:07:13;;;;;;;1.95;0.10;;;;;;;-2.51;70.25;100381.66;4996744;28;20042;-81
2023/11/26 01:09:40;;;;;;;0.10;0.00;;;;;;;-2.47;70.70;100376.66;4996777;28;20115;-80
2023/11/26 01:12:07;;;;;;;3.25;0.10;;;;;;;-2.52;70.95;100373.97;4996124;28;20050;-80
2023/11/26 01:14:34;;;;;;;0.10;0.10;;;;;;;-2.46;70.40;100389.47;4996174;28;20053;-80
2023/11/26 01:17:01;;;;;;;0.10;0.05;;;;;;;-2.45;70.82;100386.09;4996842;28;20078;-81
2023/11/26 01:19:30;;;;;;;0.50;0.10;;;;;;;-2.45;70.86;100385.22;4996263;28;20046;-80
2023/11/26 01:21:56;;;;;;;0.73;0.10;;;;;;;-2.45;70.59;100387.78;4996981;28;20543;-81
2023/11/26 01:24:23;;;;;;;0.43;0.10;;;;;;;-2.54;70.93;100361.13;4996824;28;20046;-80
2023/11/26 01:26:50;;;;;;;1.77;0.10;;;;;;;-2.45;70.47;100377.56;4995906;28;20141;-80
2023/11/26 01:29:17;;;;;;;0.43;0.00;;;;;;;-2.45;70.41;100370.75;4996981;28;20054;-80
2023/11/26 01:31:44;;;;;;;0.10;0.10;;;;;;;-2.49;70.67;100379.16;4996414;28;20053;-81
2023/11/26 01:34:11;;;;;;;0.55;0.10;;;;;;;-2.46;70.79;100383.50;4995915;28;20142;-80
2023/11/26 01:36:41;;;;;;;0.30;0.00;;;;;;;-2.46;70.44;100378.38;4995853;28;20560;-80
2023/11/26 01:39:07;;;;;;;0.10;0.10;;;;;;;-2.51;70.60;100378.25;4996540;28;20089;-74
2023/11/26 01:41:34;;;;;;;1.08;0.00;;;;;;;-2.48;70.65;100386.00;4995454;28;20073;-74
2023/11/26 01:44:01;;;;;;;0.65;0.10;;;;;;;-2.51;70.64;100381.66;4995321;28;20142;-74
2023/11/26 01:46:29;;;;;;;0.47;0.10;;;;;;;-2.50;70.53;100385.97;4995404;28;20125;-74
2023/11/26 01:48:56;;;;;;;0.10;0.00;;;;;;;-2.50;70.67;100388.53;4995043;28;20046;-76
2023/11/26 01:51:24;;;;;;;0.40;0.10;;;;;;;-2.50;70.63;100396.22;4995953;28;20084;-76
2023/11/26 01:53:53;;;;;;;0.20;0.10;;;;;;;-2.51;70.78;100386.78;4995266;28;20058;-76
2023/11/26 01:56:21;;;;;;;0.25;0.10;;;;;;;-2.50;70.63;100377.44;4995924;28;20046;-76
2023/11/26 01:58:49;;;;;;;0.10;0.10;;;;;;;-2.53;70.69;100373.13;4995185;28;20385;-76
2023/11/26 02:01:21;;;;;;;0.98;0.00;;;;;;;-2.53;70.92;100378.22;4995021;28;20054;-76
2023/11/26 02:03:48;;;;;;;0.38;0.20;;;;;;;-2.52;70.81;100379.09;4995212;28;20126;-76
2023/11/26 02:06:15;;;;;;;1.05;0.10;;;;;;;-2.53;70.80;100383.34;4994795;28;20129;-76
2023/11/26 02:08:43;;;;;;;0.00;0.00;;;;;;;-2.52;70.26;100382.50;4994988;28;20464;-76
2023/11/26 02:11:11;;;;;;;0.38;0.10;;;;;;;-2.53;70.49;100385.03;4994618;28;20089;-76
2023/11/26 02:13:45;;;;;;;0.60;0.10;;;;;;;-2.53;70.96;100378.22;4995457;28;20088;-76
2023/11/26 02:16:13;;;;;;;1.08;0.10;;;;;;;-2.53;70.87;100390.16;4994381;28;20411;-75
2023/11/26 02:18:40;;;;;;;3.85;0.00;;;;;;;-2.54;70.60;100396.06;4995351;28;20050;-76
2023/11/26 02:21:07;;;;;;;0.00;0.00;;;;;;;-2.55;70.88;100402.88;4995286;28;20050;-76
2023/11/26 02:23:35;;;;;;;1.88;0.10;;;;;;;-2.58;70.51;100390.00;4994425;28;20050;-76
2023/11/26 02:26:05;;;;;;;1.70;0.10;;;;;;;-2.57;70.57;100396.84;4994495;28;20566;-76
2023/11/26 02:28:32;;;;;;;0.38;0.10;;;;;;;-2.57;70.66;100406.22;4995228;28;20051;-76
2023/11/26 02:30:59;;;;;;;4.15;0.10;;;;;;;-2.58;71.10;100396.81;4994507;28;20051;-76
2023/11/26 02:33:26;;;;;;;1.05;0.00;;;;;;;-2.59;71.06;100411.31;4994460;28;20102;-76
2023/11/26 02:35:53;;;;;;;0.85;0.10;;;;;;;-2.60;70.71;100409.53;4994105;28;20120;-76
2023/11/26 02:38:20;;;;;;;0.60;0.05;;;;;;;-2.59;70.58;100421.53;4994033;28;20197;-77
2023/11/26 02:40:48;;;;;;;0.55;0.03;;;;;;;-2.60;70.89;100413.81;4995126;28;20073;-76
2023/11/26 02:43:17;;;;;;;0.10;0.00;;;;;;;-2.60;70.71;100416.34;4994254;28;20070;-76
2023/11/26 02:45:45;;;;;;;0.85;0.10;;;;;;;-2.63;70.82;100412.03;4994082;28;20050;-76
2023/11/26 02:48:12;;;;;;;0.20;0.10;;;;;;;-2.63;71.03;100426.50;4995174;28;20050;-74
2023/11/26 02:50:38;;;;;;;2.58;0.20;;;;;;;-2.62;71.02;100429.13;4994519;28;20078;-74
2023/11/26 02:53:04;;;;;;;0.15;0.10;;;;;;;-2.64;70.80;100423.09;4994467;28;20527;-75
2023/11/26 02:55:31;;;;;;;0.40;0.00;;;;;;;-2.61;70.70;100438.50;4994537;28;20460;-74
2023/11/26 02:57:59;;;;;;;0.20;0.10;;;;;;;-2.59;70.86;100433.41;4993824;28;20081;-74
2023/11/26 03:00:28;;;;;;;0.95;0.10;;;;;;;-2.59;71.19;100438.53;4993735;28;20054;-74
2023/11/26 03:02:55;;;;;;;2.17;0.52;;;;;;;-2.59;70.60;100428.31;4994247;28;20046;-74
2023/11/26 03:05:22;;;;;;;0.00;0.00;;;;;;;-2.59;71.09;100439.44;4994109;28;20053;-74
2023/11/26 03:07:52;;;;;;;0.60;0.10;;;;;;;-2.59;71.00;100443.66;4993687;28;20055;-74
2023/11/26 03:13:12;;;;;;;0.30;0.00;;;;;;;-2.57;71.35;100445.44;4993903;28;20093;-74
2023/11/26 03:15:43;;;;;;;0.30;0.10;;;;;;;-2.57;71.01;100445.44;4993291;28;20559;-74
2023/11/26 03:18:12;;;;;;;0.98;0.10;;;;;;;-2.57;70.89;100445.44;4994828;28;20050;-74
2023/11/26 03:20:41;;;;;;;4.03;0.10;;;;;;;-2.54;71.51;100449.78;4993570;28;20061;-74
2023/11/26 03:23:09;;;;;;;1.02;0.20;;;;;;;-2.54;71.23;100442.97;4994364;28;20077;-74
2023/11/26 03:25:37;;;;;;;1.75;0.10;;;;;;;-2.53;71.35;100448.97;4994696;28;20097;-74
2023/11/26 03:28:05;;;;;;;1.10;0.20;;;;;;;-2.53;70.96;100449.84;4994601;28;20084;-74
2023/11/26 03:30:34;;;;;;;3.83;0.10;;;;;;;-2.51;71.07;100452.41;4994509;28;20050;-74
2023/11/26 03:33:02;;;;;;;2.92;0.30;;;;;;;-2.51;71.54;100452.41;4994551;28;20129;-74
2023/11/26 03:35:29;;;;;;;0.65;0.10;;;;;;;-2.50;71.57;100455.03;4994755;28;20099;-74
2023/11/26 03:37:56;;;;;;;0.30;0.05;;;;;;;-2.48;71.51;100460.19;4993463;28;20050;-74
2023/11/26 03:40:24;;;;;;;0.98;0.20;;;;;;;-2.46;71.29;100455.13;4993380;28;20046;-74
2023/11/26 03:42:51;;;;;;;0.47;0.15;;;;;;;-2.47;71.08;100454.25;4994232;28;20053;-75
2023/11/26 03:45:18;;;;;;;0.30;0.10;;;;;;;-2.45;71.59;100456.84;4993505;28;20047;-74
2023/11/26 03:47:46;;;;;;;1.45;0.03;;;;;;;-2.43;71.41;100460.31;4993402;28;20133;-74
2023/11/26 03:50:14;;;;;;;0.10;0.00;;;;;;;-2.42;71.16;100454.38;4993618;28;20053;-74
2023/11/26 03:52:41;;;;;;;0.88;0.10;;;;;;;-2.45;71.24;100462.81;4993692;28;20051;-74
2023/11/26 03:55:09;;;;;;;0.13;0.10;;;;;;;-2.40;71.78;100460.41;4993988;28;20082;-75
2023/11/26 03:57:37;;;;;;;2.20;0.20;;;;;;;-2.39;71.57;100468.13;4993374;28;20051;-80
2023/11/26 04:00:07;;;;;;;0.30;0.08;;;;;;;-2.39;71.38;100463.03;4993970;28;20097;-80
2023/11/26 04:02:34;;;;;;;0.10;0.05;;;;;;;-2.37;71.71;100471.59;4994470;28;20055;-80
2023/11/26 04:05:01;;;;;;;2.38;0.15;;;;;;;-2.42;71.70;100464.59;4993711;28;20547;-81
2023/11/26 04:07:31;;;;;;;0.30;0.10;;;;;;;-2.38;71.35;100469.00;4995129;28;20085;-80
2023/11/26 04:09:58;;;;;;;7.15;0.30;;;;;;;-2.35;71.73;100476.75;4993651;28;20050;-80
2023/11/26 04:12:25;;;;;;;0.32;0.10;;;;;;;-2.35;71.38;100471.66;4993758;28;20054;-80
2023/11/26 04:14:56;;;;;;;1.35;0.20;;;;;;;-2.32;71.65;100476.84;4994224;28;20081;-80
2023/11/26 04:17:24;;;;;;;3.00;0.00;;;;;;;-2.31;71.43;100470.91;4994355;28;20109;-80
2023/11/26 04:19:52;;;;;;;0.28;0.03;;;;;;;-2.31;71.90;100473.44;4993883;28;20061;-80
2023/11/26 04:22:20;;;;;;;0.60;0.10;;;;;;;-2.29;71.55;100471.81;4993935;28;20134;-81
2023/11/26 04:24:49;;;;;;;0.30;0.10;;;;;;;-2.37;71.40;100458.78;4994294;28;20058;-80
2023/11/26 04:27:16;;;;;;;1.55;0.15;;;;;;;-2.34;71.70;100471.66;4995516;28;20125;-80
2023/11/26 04:29:43;;;;;;;3.80;0.10;;;;;;;-2.26;71.88;100477.00;4997225;28;20059;-80
2023/11/26 04:32:10;;;;;;;0.40;0.15;;;;;;;-2.27;71.67;100472.72;4997720;28;20475;-80
2023/11/26 04:34:37;;;;;;;0.30;0.10;;;;;;;-2.29;71.73;100474.38;4996926;28;20062;-80
2023/11/26 04:37:08;;;;;;;1.00;0.10;;;;;;;-2.26;71.38;100482.13;4997416;28;20469;-80
2023/11/26 04:39:35;;;;;;;0.43;0.10;;;;;;;-2.25;71.15;100471.06;4997210;28;20051;-80
2023/11/26 04:42:04;;;;;;;0.03;0.00;;;;;;;-2.25;71.34;100483.84;4997101;28;20050;-80
2023/11/26 04:44:32;;;;;;;0.70;0.10;;;;;;;-2.26;71.50;100479.56;4997537;28;20050;-81
2023/11/26 04:46:59;;;;;;;0.20;0.10;;;;;;;-2.27;71.51;100472.72;4997780;28;20054;-80
2023/11/26 04:49:26;;;;;;;1.08;0.10;;;;;;;-2.31;71.52;100468.34;4996736;28;20060;-80
2023/11/26 04:51:53;;;;;;;0.35;0.03;;;;;;;-2.28;71.58;100476.09;4996792;28;20134;-81
2023/11/26 04:54:21;;;;;;;1.40;0.10;;;;;;;-2.23;71.63;100478.78;4997886;28;20480;-80
2023/11/26 04:56:48;;;;;;;0.10;0.10;;;;;;;-2.24;71.35;100480.50;4998234;28;20065;-81
2023/11/26 04:59:17;;;;;;;0.10;0.10;;;;;;;-2.24;71.40;100480.50;4996619;28;20050;-81
2023/11/26 05:01:48;;;;;;;1.65;0.10;;;;;;;-2.24;71.00;100482.19;4998184;28;20384;-80
2023/11/26 05:04:16;;;;;;;0.40;0.10;;;;;;;-2.24;71.88;100477.06;4997163;28;20058;-80
2023/11/26 05:06:43;;;;;;;2.33;0.17;;;;;;;-2.23;71.04;100489.03;4996789;28;20042;-80
2023/11/26 05:09:12;;;;;;;0.20;0.05;;;;;;;-2.24;71.56;100488.16;4996498;28;20073;-72
2023/11/26 05:11:40;;;;;;;0.20;0.10;;;;;;;-2.24;71.51;100488.16;4996855;28;20069;-72
2023/11/26 05:14:07;;;;;;;2.28;0.00;;;;;;;-2.24;71.52;100492.44;4997033;28;20052;-73
2023/11/26 05:16:35;;;;;;;1.00;0.10;;;;;;;-2.26;71.51;100489.81;4996205;28;20129;-72
2023/11/26 05:19:02;;;;;;;0.28;0.00;;;;;;;-2.24;71.55;100488.16;4996186;28;20137;-76
2023/11/26 05:21:30;;;;;;;0.20;0.10;;;;;;;-2.25;71.47;100491.53;4996075;28;20101;-76
2023/11/26 05:23:57;;;;;;;0.32;0.10;;;;;;;-2.26;71.55;100495.78;4996058;28;20085;-76
2023/11/26 05:26:26;;;;;;;0.10;0.00;;;;;;;-2.24;71.49;100497.53;4996740;28;20105;-76
2023/11/26 05:28:53;;;;;;;0.32;0.10;;;;;;;-2.34;71.52;100481.91;4996481;28;20451;-77
2023/11/26 05:31:20;;;;;;;0.05;0.00;;;;;;;-2.26;71.59;100498.34;4996751;28;20053;-76
2023/11/26 05:33:48;;;;;;;0.80;0.13;;;;;;;-2.25;71.12;100501.75;4995767;28;20515;-77
2023/11/26 05:36:15;;;;;;;0.20;0.10;;;;;;;-2.28;71.91;100504.25;4996245;28;20126;-76
2023/11/26 05:38:42;;;;;;;1.30;0.10;;;;;;;-2.27;71.44;100508.56;4995176;28;20457;-76
2023/11/26 05:41:09;;;;;;;0.10;0.10;;;;;;;-2.26;71.27;100510.28;4995765;28;20133;-76
2023/11/26 05:43:36;;;;;;;0.52;0.00;;;;;;;-2.31;71.57;100506.72;4995903;28;20120;-76
2023/11/26 05:46:06;;;;;;;0.20;0.10;;;;;;;-2.27;71.57;100513.66;4995279;28;20050;-76
2023/11/26 05:48:33;;;;;;;0.47;0.10;;;;;;;-2.27;71.51;100514.53;4995216;28;20078;-76
2023/11/26 05:51:02;;;;;;;0.08;0.00;;;;;;;-2.28;71.54;100512.81;4995226;28;20126;-76
2023/11/26 05:53:29;;;;;;;0.20;0.10;;;;;;;-2.28;71.35;100523.03;4995513;28;20054;-76
2023/11/26 05:55:55;;;;;;;0.10;0.00;;;;;;;-2.29;71.94;100520.41;4996186;28;20121;-76
2023/11/26 05:58:22;;;;;;;0.50;0.13;;;;;;;-2.29;71.20;100520.41;4995406;28;20086;-76
2023/11/26 06:00:49;;;;;;;1.77;0.10;;;;;;;-2.30;71.17;100528.94;4995256;28;20129;-76
2023/11/26 06:03:17;;;;;;;0.85;0.10;;;;;;;-2.37;71.53;100527.00;4995539;28;20067;-77
2023/11/26 06:05:44;;;;;;;0.08;0.03;;;;;;;-2.37;71.10;100537.22;4995021;28;20053;-76
2023/11/26 06:08:12;;;;;;;0.15;0.10;;;;;;;-2.31;71.94;100545.94;4995191;28;20137;-77
2023/11/26 06:10:39;;;;;;;0.20;0.10;;;;;;;-2.31;71.36;100542.53;4994766;28;20129;-76
2023/11/26 06:13:06;;;;;;;0.00;0.00;;;;;;;-2.34;71.67;100534.75;4996187;28;20073;-76
2023/11/26 06:15:33;;;;;;;0.20;0.10;;;;;;;-2.32;71.78;100543.34;4995611;28;20050;-76
2023/11/26 06:18:00;;;;;;;0.50;0.00;;;;;;;-2.33;71.52;100557.84;4994817;28;20133;-74
2023/11/26 06:20:28;;;;;;;0.10;0.00;;;;;;;-2.35;71.75;100556.06;4994724;28;20082;-74
2023/11/26 06:22:55;;;;;;;0.15;0.00;;;;;;;-2.34;71.60;100563.75;4994833;28;20042;-74
2023/11/26 06:25:24;;;;;;;1.95;0.10;;;;;;;-2.35;71.65;100566.28;4996026;28;20074;-74
2023/11/26 06:27:51;;;;;;;0.30;0.17;;;;;;;-2.35;71.30;100571.41;4995430;28;20484;-74
2023/11/26 06:30:18;;;;;;;0.10;0.10;;;;;;;-2.35;71.45;100576.53;4994136;28;20520;-74
2023/11/26 06:32:45;;;;;;;0.22;0.10;;;;;;;-2.35;71.64;100572.28;4994651;28;20049;-74
2023/11/26 06:35:12;;;;;;;1.00;0.20;;;;;;;-2.36;72.00;100572.22;4995410;28;20097;-74
2023/11/26 06:37:39;;;;;;;0.68;0.10;;;;;;;-2.36;71.53;100569.66;4995481;28;20385;-74
2023/11/26 06:40:08;;;;;;;0.73;0.20;;;;;;;-2.37;71.51;100573.03;4994404;28;20050;-73
2023/11/26 06:42:40;;;;;;;0.22;0.10;;;;;;;-2.38;71.80;100573.88;4994214;28;20042;-74
2023/11/26 06:45:08;;;;;;;0.10;0.10;;;;;;;-2.40;71.64;100578.06;4994517;28;20101;-74
2023/11/26 06:47:35;;;;;;;0.95;0.10;;;;;;;-2.40;71.54;100578.06;4994432;28;20085;-74
2023/11/26 06:50:02;;;;;;;0.20;0.10;;;;;;;-2.40;71.24;100578.06;4994069;28;20129;-74
2023/11/26 06:52:30;;;;;;;0.50;0.10;;;;;;;-2.42;71.54;100583.16;4995130;28;20412;-74
2023/11/26 06:54:57;;;;;;;0.20;0.10;;;;;;;-2.45;71.32;100582.16;4994486;28;20057;-74
2023/11/26 06:57:24;;;;;;;0.68;0.13;;;;;;;-2.51;71.85;100570.06;4993916;28;20551;-74
2023/11/26 06:59:52;;;;;;;0.30;0.10;;;;;;;-2.44;71.75;100582.22;4993947;28;20129;-74
2023/11/26 07:02:20;;;;;;;0.40;0.20;;;;;;;-2.44;71.38;100591.59;4993909;28;20105;-74
2023/11/26 07:04:47;;;;;;;1.45;0.10;;;;;;;-2.44;71.33;100596.72;4994146;28;20081;-74
2023/11/26 07:07:14;;;;;;;2.83;0.20;;;;;;;-2.45;71.74;100594.97;4993786;28;20146;-74
2023/11/26 07:09:41;;;;;;;0.95;0.10;;;;;;;-2.45;71.25;100603.50;4993642;28;20125;-74
2023/11/26 07:12:09;;;;;;;0.75;0.10;;;;;;;-2.44;71.18;100606.94;4994435;28;20047;-74
2023/11/26 07:14:36;;;;;;;2.00;0.10;;;;;;;-2.45;71.47;100607.75;4994746;28;20384;-75
2023/11/26 07:17:05;;;;;;;0.30;0.10;;;;;;;-2.45;71.97;100600.06;4994469;28;20046;-74
2023/11/26 07:19:32;;;;;;;2.38;0.20;;;;;;;-2.45;71.45;100605.19;4993608;28;20097;-74
2023/11/26 07:21:59;;;;;;;0.20;0.05;;;;;;;-2.44;71.61;100606.94;4993969;28;20081;-74
2023/11/26 07:24:26;;;;;;;2.42;0.10;;;;;;;-2.45;71.41;100612.88;4994914;28;20046;-74
2023/11/26 07:26:53;;;;;;;0.20;0.10;;;;;;;-2.46;71.49;100611.13;4994584;28;20050;-74
2023/11/26 07:29:20;;;;;;;1.23;0.10;;;;;;;-2.45;71.81;100610.31;4993559;28;20046;-74
2023/11/26 07:31:48;;;;;;;0.32;0.10;;;;;;;-2.44;71.59;100617.19;4993595;28;20046;-75
2023/11/26 07:34:17;;;;;;;0.82;0.10;;;;;;;-2.45;71.79;100616.28;4993681;28;20069;-74
2023/11/26 07:36:44;;;;;;;2.95;0.10;;;;;;;-2.44;71.15;100622.28;4994582;28;20050;-75
2023/11/26 07:39:11;;;;;;;1.77;0.38;;;;;;;-2.44;71.24;100627.41;4994273;28;20400;-78
2023/11/26 07:41:38;;;;;;;1.63;0.20;;;;;;;-2.46;71.41;100627.34;4993457;28;20050;-77
2023/11/26 07:44:09;;;;;;;0.28;0.10;;;;;;;-2.57;71.50;100600.56;4993678;28;20121;-76
2023/11/26 07:46:36;;;;;;;0.40;0.20;;;;;;;-2.51;71.19;100613.53;4994232;28;20050;-77
2023/11/26 07:49:05;;;;;;;3.05;0.20;;;;;;;-2.51;71.67;100614.41;4993696;28;20077;-76
2023/11/26 07:51:33;;;;;;;1.95;0.20;;;;;;;-2.51;71.18;100622.06;4994164;28;20068;-77
2023/11/26 07:54:00;;;;;;;0.63;0.20;;;;;;;-2.52;71.23;100615.22;4994651;28;20085;-77
2023/11/26 07:56:28;;;;;;;0.57;0.20;;;;;;;-2.53;71.39;100618.63;4994451;28;20575;-77
2023/11/26 07:58:55;;;;;;;0.20;0.20;;;;;;;-2.53;71.64;100618.63;4993587;28;20046;-77
2023/11/26 08:01:22;;;;;;;0.40;0.20;;;;;;;-2.54;71.66;100619.41;4994679;28;20070;-77
2023/11/26 08:03:51;;;;;;;0.60;0.20;;;;;;;-2.53;71.19;100623.72;4997188;28;20057;-78
2023/11/26 08:06:18;;;;;;;1.52;0.30;;;;;;;-2.53;71.24;100628.84;4997629;28;20460;-77
2023/11/26 08:08:46;;;;;;;0.30;0.20;;;;;;;-2.53;71.51;100628.84;4997080;28;20047;-77
2023/11/26 08:11:16;;;;;;;1.52;0.30;;;;;;;-2.52;71.62;100635.69;4998522;28;20086;-77
2023/11/26 08:13:42;;;;;;;1.15;0.20;;;;;;;-2.53;71.36;100641.63;4997961;28;20147;-77
2023/11/26 08:16:10;;;;;;;1.50;0.20;;;;;;;-2.51;71.17;100637.41;4997199;28;20077;-77
2023/11/26 08:18:37;;;;;;;0.32;0.20;;;;;;;-2.51;71.34;100642.53;4998086;28;20047;-77
2023/11/26 08:21:06;;;;;;;2.65;0.20;;;;;;;-2.60;71.68;100632.00;4997011;28;20137;-78
2023/11/26 08:23:34;;;;;;;0.20;0.17;;;;;;;-2.53;71.66;100640.78;4996785;28;20097;-77
2023/11/26 08:26:03;;;;;;;1.58;0.20;;;;;;;-2.48;71.30;100652.00;4997845;28;20568;-77
2023/11/26 08:28:30;;;;;;;0.20;0.10;;;;;;;-2.47;71.89;100663.13;4996830;28;20046;-77
2023/11/26 08:30:58;;;;;;;2.20;0.10;;;;;;;-2.46;71.80;100652.06;4997363;28;20464;-77
2023/11/26 08:33:30;;;;;;;2.67;0.15;;;;;;;-2.46;71.35;100655.47;4997549;28;20047;-78
2023/11/26 08:35:59;;;;;;;0.20;0.10;;;;;;;-2.45;71.57;100662.31;4996906;28;20510;-77
2023/11/26 08:38:28;;;;;;;0.98;0.20;;;;;;;-2.44;71.90;100663.22;4996663;28;20070;-75
2023/11/26 08:40:55;;;;;;;0.25;0.10;;;;;;;-2.42;71.50;100666.66;4996487;28;20077;-75
2023/11/26 08:43:23;;;;;;;0.50;0.30;;;;;;;-2.42;71.87;100667.56;4996446;28;20050;-75
2023/11/26 08:45:51;;;;;;;0.85;0.20;;;;;;;-2.41;72.18;100666.72;4996508;28;20046;-75
2023/11/26 08:48:18;;;;;;;1.75;0.20;;;;;;;-2.38;71.58;100668.53;4997160;28;20460;-72
2023/11/26 08:50:46;;;;;;;0.90;0.28;;;;;;;-2.36;71.74;100666.84;4996301;28;20047;-72
2023/11/26 08:53:13;;;;;;;1.20;0.20;;;;;;;-2.37;71.87;100666.00;4996435;28;20404;-72
2023/11/26 08:55:40;;;;;;;0.60;0.20;;;;;;;-2.34;71.64;100660.97;4996320;28;20047;-72
2023/11/26 08:58:07;;;;;;;3.85;0.95;;;;;;;-2.31;72.15;100670.44;4996537;28;20473;-72
2023/11/26 09:00:35;;;;;;;0.68;0.40;;;;;;;-2.30;72.08;100667.94;4996264;28;20138;-72
2023/11/26 09:03:02;;;;;;;1.67;0.50;;;;;;;-2.28;71.97;100673.09;4996362;28;20128;-73
2023/11/26 09:05:29;;;;;;;2.15;0.30;;;;;;;-2.26;71.65;100674.03;4996071;28;20050;-73
2023/11/26 09:07:56;;;;;;;1.42;0.40;;;;;;;-2.25;71.96;100675.75;4995983;28;20539;-73
2023/11/26 09:10:23;;;;;;;4.00;0.60;;;;;;;-2.22;72.05;100680.09;4996227;28;20125;-73
2023/11/26 09:12:50;;;;;;;0.77;0.40;;;;;;;-2.20;72.50;100683.59;4995974;28;20448;-72
2023/11/26 09:15:17;;;;;;;0.73;0.40;;;;;;;-2.18;71.69;100681.94;4995568;28;20042;-72
2023/11/26 09:17:46;;;;;;;0.77;0.35;;;;;;;-2.15;72.43;100692.28;4995966;28;20549;-72
2023/11/26 09:20:15;;;;;;;0.50;0.30;;;;;;;-2.15;71.90;100693.13;4995998;28;20126;-72
2023/11/26 09:22:42;;;;;;;0.52;0.30;;;;;;;-2.10;72.14;100693.31;4995798;28;20504;-72
2023/11/26 09:25:13;;;;;;;0.43;0.20;;;;;;;-2.09;71.61;100698.44;4996430;28;20116;-73
2023/11/26 09:27:41;;;;;;;0.50;0.20;;;;;;;-2.08;71.97;100695.09;4995485;28;20496;-72
2023/11/26 09:30:09;;;;;;;1.17;0.40;;;;;;;-2.06;72.21;100703.66;4995874;28;20090;-72
2023/11/26 09:32:37;;;;;;;3.95;0.70;;;;;;;-2.01;71.67;100705.50;4996493;28;20477;-72
2023/11/26 09:35:07;;;;;;;0.80;0.30;;;;;;;-1.99;72.19;100708.97;4995402;28;20104;-72
2023/11/26 09:37:34;;;;;;;2.25;0.22;;;;;;;-1.97;72.29;100708.19;4995244;28;20449;-73
2023/11/26 09:40:02;;;;;;;1.80;0.20;;;;;;;-1.95;72.04;100711.69;4995480;28;20093;-73
2023/11/26 09:42:29;;;;;;;0.77;0.30;;;;;;;-1.93;72.39;100716.88;4995304;28;20389;-72
2023/11/26 09:44:56;;;;;;;0.40;0.17;;;;;;;-1.92;72.29;100719.47;4994684;28;20088;-73
2023/11/26 09:47:23;;;;;;;0.17;0.10;;;;;;;-1.90;72.10;100719.53;4996234;28;20094;-73
2023/11/26 09:49:50;;;;;;;4.57;0.20;;;;;;;-1.88;72.10;100725.53;4995197;28;20082;-80
2023/11/26 09:52:19;;;;;;;1.23;0.22;;;;;;;-1.88;72.21;100717.84;4996037;28;20050;-79
2023/11/26 09:54:46;;;;;;;1.27;0.63;;;;;;;-1.86;71.67;100714.53;4995559;28;20054;-78
2023/11/26 09:57:13;;;;;;;0.60;0.17;;;;;;;-1.84;72.46;100719.69;4995729;28;20081;-79
2023/11/26 09:59:40;;;;;;;0.50;0.20;;;;;;;-1.83;71.87;100718.88;4994490;28;20051;-73
2023/11/26 10:02:10;;;;;;;0.73;0.20;;;;;;;-1.84;71.69;100714.59;4995332;28;20073;-73
2023/11/26 10:04:54;;;;;;;0.73;0.20;;;;;;;-1.81;71.88;100727.47;4994644;28;20129;-73
2023/11/26 10:07:36;;;;;;;0.40;0.17;;;;;;;-1.79;72.20;100736.09;4994677;28;20073;-73
2023/11/26 10:10:09;;;;;;;0.20;0.10;;;;;;;-1.78;71.70;100735.25;4994262;28;20050;-73
2023/11/26 10:12:51;;;;;;;2.35;0.20;;;;;;;-1.77;71.63;100733.56;4994572;28;20523;-73
2023/11/26 10:15:19;;;;;;;0.60;0.30;;;;;;;-1.81;71.92;100730.03;4994148;28;20083;-73
2023/11/26 10:17:59;;;;;;;0.55;0.20;;;;;;;-1.75;71.50;100739.59;4994427;28;20442;-72
2023/11/26 10:20:27;;;;;;;0.85;0.40;;;;;;;-1.75;71.47;100739.59;4994131;28;20046;-73
2023/11/26 10:22:56;;;;;;;4.22;0.93;;;;;;;-1.74;72.07;100737.06;4994270;28;20053;-73
2023/11/26 10:25:24;;;;;;;0.95;0.28;;;;;;;-1.73;71.88;100743.94;4994303;28;20416;-73
2023/11/26 10:27:51;;;;;;;1.27;0.30;;;;;;;-1.72;72.16;100734.56;4994303;28;20488;-72
2023/11/26 10:30:28;;;;;;;0.60;0.20;;;;;;;-1.72;72.00;100730.31;4994212;28;20053;-73
2023/11/26 10:32:56;;;;;;;1.90;0.28;;;;;;;-1.69;71.32;100730.41;4994290;28;20054;-73
2023/11/26 10:35:24;;;;;;;1.50;0.40;;;;;;;-1.68;71.70;100733.81;4993927;28;20054;-73
2023/11/26 10:37:51;;;;;;;2.42;0.57;;;;;;;-1.67;71.40;100736.44;4993786;28;20050;-73
2023/11/26 10:40:19;;;;;;;3.22;1.10;;;;;;;-1.66;71.64;100745.84;4994299;28;20078;-73
2023/11/26 10:42:48;;;;;;;4.22;0.70;;;;;;;-1.65;71.34;100746.72;4993991;28;20131;-73
2023/11/26 10:45:18;;;;;;;1.00;0.47;;;;;;;-1.65;72.04;100744.16;4994092;28;20484;-72
2023/11/26 10:47:47;;;;;;;0.45;0.30;;;;;;;-1.66;71.65;100745.84;4993713;28;20046;-73
2023/11/26 10:50:16;;;;;;;1.00;0.20;;;;;;;-1.67;71.16;100733.88;4993809;28;20133;-73
2023/11/26 10:52:50;;;;;;;1.17;0.30;;;;;;;-1.66;71.83;100739.88;4993600;28;20133;-73
2023/11/26 10:55:24;;;;;;;0.75;0.20;;;;;;;-1.66;71.94;100745.84;4993635;28;20408;-72
2023/11/26 10:57:55;;;;;;;0.57;0.30;;;;;;;-1.64;70.99;100751.03;4994180;28;20381;-77
2023/11/26 11:00:24;;;;;;;0.22;0.20;;;;;;;-1.65;71.15;100747.63;4993608;28;20479;-77
2023/11/26 11:02:51;;;;;;;0.30;0.10;;;;;;;-1.65;71.24;100752.75;4993738;28;20047;-76
2023/11/26 11:05:23;;;;;;;3.53;0.57;;;;;;;-1.65;71.55;100755.31;4993379;28;20568;-77
2023/11/26 11:07:50;;;;;;;2.67;0.88;;;;;;;-1.65;71.24;100765.53;4993764;28;20046;-80
2023/11/26 11:10:25;;;;;;;0.57;0.40;;;;;;;-1.64;71.49;100758.72;4994256;28;20133;-80
2023/11/26 11:12:59;;;;;;;0.93;0.40;;;;;;;-1.66;72.12;100755.25;4993900;28;20125;-80
2023/11/26 11:15:27;;;;;;;3.13;0.90;;;;;;;-1.66;71.51;100750.97;4994026;28;20078;-80
2023/11/26 11:17:54;;;;;;;1.40;0.70;;;;;;;-1.64;71.26;100753.59;4993694;28;20073;-81
2023/11/26 11:20:21;;;;;;;2.25;0.95;;;;;;;-1.65;71.54;100747.63;4994498;28;20540;-80
2023/11/26 11:22:48;;;;;;;3.17;1.48;;;;;;;-1.63;71.50;100751.06;4993856;28;20471;-81
2023/11/26 11:25:17;;;;;;;1.45;0.73;;;;;;;-1.63;71.58;100758.75;4993795;28;20125;-80
2023/11/26 11:27:54;;;;;;;1.42;0.30;;;;;;;-1.64;71.75;100759.59;4994159;28;20054;-81
2023/11/26 11:30:55;;;;;;;2.55;0.30;;;;;;;-1.63;71.71;100756.19;4994383;28;20047;-80